Terminal Aerodrome Forecast
Issued by NWS Charleston, WV

Current Version | Previous Version | Graphics & Text | Print | Product List | Glossary On
Versions: 1 2 3 4 5 6 7 8 9 10 11 12 13 14 15 16 17 18 19 20 21 22 23 24 25 26 27
184
FTUS41 KRLX 230255 AAA
TAFEKN
TAF AMD
KEKN 230255Z 2303/2324 00000KT P6SM OVC020
     FM230500 00000KT 4SM BR OVC020
     FM230800 00000KT 2SM BR BKN025
     FM231300 VRB03KT 3SM BR BKN025
     FM231400 VRB03KT P6SM BKN035=

USA.gov is the U.S. government's official web portal to all federal, state and local government web resources and services.